sensor_id;sensor_type;location;lat;lon;timestamp;P1;durP1;ratioP1;P2;durP2;ratioP2
49392;SDS011;35268;42.642;23.308;2022-10-17T00:00:42;18.52;;;7.50;;
49392;SDS011;35268;42.642;23.308;2022-10-17T00:03:07;33.25;;;12.93;;
49392;SDS011;35268;42.642;23.308;2022-10-17T00:05:33;28.40;;;11.25;;
49392;SDS011;35268;42.642;23.308;2022-10-17T00:08:02;19.38;;;9.20;;
49392;SDS011;35268;42.642;23.308;2022-10-17T00:10:28;15.80;;;7.47;;
49392;SDS011;35268;42.642;23.308;2022-10-17T00:12:53;18.02;;;8.27;;
49392;SDS011;35268;42.642;23.308;2022-10-17T00:15:19;16.27;;;7.20;;
49392;SDS011;35268;42.642;23.308;2022-10-17T00:17:45;16.40;;;6.82;;
49392;SDS011;35268;42.642;23.308;2022-10-17T00:20:11;13.63;;;5.53;;
49392;SDS011;35268;42.642;23.308;2022-10-17T00:22:36;11.80;;;6.55;;
49392;SDS011;35268;42.642;23.308;2022-10-17T00:25:02;10.10;;;5.72;;
49392;SDS011;35268;42.642;23.308;2022-10-17T00:27:28;8.13;;;5.35;;
49392;SDS011;35268;42.642;23.308;2022-10-17T00:29:53;13.77;;;5.68;;
49392;SDS011;35268;42.642;23.308;2022-10-17T00:32:18;9.30;;;6.00;;
49392;SDS011;35268;42.642;23.308;2022-10-17T00:34:44;11.75;;;6.53;;
49392;SDS011;35268;42.642;23.308;2022-10-17T00:37:10;11.68;;;6.63;;
49392;SDS011;35268;42.642;23.308;2022-10-17T00:39:35;12.95;;;6.72;;
49392;SDS011;35268;42.642;23.308;2022-10-17T00:42:01;11.95;;;6.70;;
49392;SDS011;35268;42.642;23.308;2022-10-17T00:47:00;17.70;;;7.38;;
49392;SDS011;35268;42.642;23.308;2022-10-17T00:49:29;12.10;;;6.43;;
49392;SDS011;35268;42.642;23.308;2022-10-17T00:51:59;10.02;;;5.88;;
49392;SDS011;35268;42.642;23.308;2022-10-17T00:54:29;10.05;;;4.97;;
49392;SDS011;35268;42.642;23.308;2022-10-17T00:56:57;10.77;;;5.72;;
49392;SDS011;35268;42.642;23.308;2022-10-17T00:59:23;12.65;;;5.90;;
49392;SDS011;35268;42.642;23.308;2022-10-17T01:04:31;11.50;;;6.35;;
49392;SDS011;35268;42.642;23.308;2022-10-17T01:06:56;9.48;;;5.55;;
49392;SDS011;35268;42.642;23.308;2022-10-17T01:09:23;10.95;;;5.95;;
49392;SDS011;35268;42.642;23.308;2022-10-17T01:12:00;10.77;;;5.65;;
49392;SDS011;35268;42.642;23.308;2022-10-17T01:14:45;13.60;;;5.85;;
49392;SDS011;35268;42.642;23.308;2022-10-17T01:31:24;10.43;;;6.20;;
49392;SDS011;35268;42.642;23.308;2022-10-17T01:34:13;16.33;;;7.00;;
49392;SDS011;35268;42.642;23.308;2022-10-17T01:39:17;15.73;;;6.60;;
49392;SDS011;35268;42.642;23.308;2022-10-17T01:44:49;14.40;;;7.78;;
49392;SDS011;35268;42.642;23.308;2022-10-17T01:47:25;12.55;;;7.47;;
49392;SDS011;35268;42.642;23.308;2022-10-17T01:49:55;15.85;;;8.23;;
49392;SDS011;35268;42.642;23.308;2022-10-17T01:52:26;13.87;;;7.43;;
49392;SDS011;35268;42.642;23.308;2022-10-17T01:54:59;14.00;;;7.20;;
49392;SDS011;35268;42.642;23.308;2022-10-17T01:57:33;10.90;;;6.60;;
49392;SDS011;35268;42.642;23.308;2022-10-17T02:00:03;20.25;;;7.70;;
49392;SDS011;35268;42.642;23.308;2022-10-17T02:02:32;11.40;;;6.75;;
49392;SDS011;35268;42.642;23.308;2022-10-17T02:04:58;16.13;;;7.28;;
49392;SDS011;35268;42.642;23.308;2022-10-17T02:07:28;16.85;;;8.57;;
49392;SDS011;35268;42.642;23.308;2022-10-17T02:09:53;17.60;;;6.93;;
49392;SDS011;35268;42.642;23.308;2022-10-17T02:20:24;12.60;;;6.90;;
49392;SDS011;35268;42.642;23.308;2022-10-17T02:25:45;12.50;;;6.88;;
49392;SDS011;35268;42.642;23.308;2022-10-17T02:28:19;12.02;;;6.68;;
49392;SDS011;35268;42.642;23.308;2022-10-17T02:30:53;9.00;;;6.07;;
49392;SDS011;35268;42.642;23.308;2022-10-17T02:33:29;11.93;;;5.90;;
49392;SDS011;35268;42.642;23.308;2022-10-17T02:36:00;14.77;;;6.35;;
49392;SDS011;35268;42.642;23.308;2022-10-17T02:38:29;9.93;;;5.53;;
49392;SDS011;35268;42.642;23.308;2022-10-17T02:40:58;12.15;;;6.43;;
49392;SDS011;35268;42.642;23.308;2022-10-17T02:43:24;9.15;;;5.15;;
49392;SDS011;35268;42.642;23.308;2022-10-17T02:45:50;12.55;;;6.32;;
49392;SDS011;35268;42.642;23.308;2022-10-17T02:48:24;12.20;;;5.28;;
49392;SDS011;35268;42.642;23.308;2022-10-17T02:51:01;9.63;;;6.05;;
49392;SDS011;35268;42.642;23.308;2022-10-17T02:53:56;8.60;;;4.88;;
49392;SDS011;35268;42.642;23.308;2022-10-17T02:56:21;12.55;;;5.57;;
49392;SDS011;35268;42.642;23.308;2022-10-17T02:58:49;10.05;;;5.40;;
49392;SDS011;35268;42.642;23.308;2022-10-17T03:01:20;8.35;;;5.03;;
49392;SDS011;35268;42.642;23.308;2022-10-17T03:03:45;9.32;;;5.05;;
49392;SDS011;35268;42.642;23.308;2022-10-17T03:06:11;11.20;;;5.20;;
49392;SDS011;35268;42.642;23.308;2022-10-17T03:08:36;8.90;;;5.30;;
49392;SDS011;35268;42.642;23.308;2022-10-17T03:11:02;12.02;;;5.18;;
49392;SDS011;35268;42.642;23.308;2022-10-17T03:13:28;14.00;;;5.55;;
49392;SDS011;35268;42.642;23.308;2022-10-17T03:15:54;11.90;;;5.25;;
49392;SDS011;35268;42.642;23.308;2022-10-17T03:18:21;10.02;;;5.90;;
49392;SDS011;35268;42.642;23.308;2022-10-17T03:20:46;9.23;;;5.00;;
49392;SDS011;35268;42.642;23.308;2022-10-17T03:23:12;7.75;;;4.55;;
49392;SDS011;35268;42.642;23.308;2022-10-17T03:25:37;8.60;;;4.80;;
49392;SDS011;35268;42.642;23.308;2022-10-17T03:28:03;9.25;;;5.13;;
49392;SDS011;35268;42.642;23.308;2022-10-17T03:30:29;9.85;;;4.40;;
49392;SDS011;35268;42.642;23.308;2022-10-17T03:32:58;9.55;;;4.97;;
49392;SDS011;35268;42.642;23.308;2022-10-17T03:35:25;10.40;;;5.20;;
49392;SDS011;35268;42.642;23.308;2022-10-17T03:37:51;12.15;;;6.22;;
49392;SDS011;35268;42.642;23.308;2022-10-17T03:40:16;11.30;;;5.85;;
49392;SDS011;35268;42.642;23.308;2022-10-17T03:42:42;11.70;;;5.47;;
49392;SDS011;35268;42.642;23.308;2022-10-17T03:45:08;14.98;;;6.03;;
49392;SDS011;35268;42.642;23.308;2022-10-17T03:47:33;15.85;;;7.72;;
49392;SDS011;35268;42.642;23.308;2022-10-17T03:49:59;15.52;;;6.45;;
49392;SDS011;35268;42.642;23.308;2022-10-17T03:52:24;10.23;;;6.18;;
49392;SDS011;35268;42.642;23.308;2022-10-17T03:54:50;13.13;;;6.13;;
49392;SDS011;35268;42.642;23.308;2022-10-17T03:57:16;10.88;;;6.80;;
49392;SDS011;35268;42.642;23.308;2022-10-17T03:59:42;12.52;;;6.75;;
49392;SDS011;35268;42.642;23.308;2022-10-17T04:02:07;14.05;;;6.38;;
49392;SDS011;35268;42.642;23.308;2022-10-17T04:04:33;11.35;;;6.85;;
49392;SDS011;35268;42.642;23.308;2022-10-17T04:06:58;11.43;;;5.63;;
49392;SDS011;35268;42.642;23.308;2022-10-17T04:09:23;13.40;;;6.22;;
49392;SDS011;35268;42.642;23.308;2022-10-17T04:11:49;17.05;;;7.60;;
49392;SDS011;35268;42.642;23.308;2022-10-17T04:14:14;13.13;;;7.55;;
49392;SDS011;35268;42.642;23.308;2022-10-17T04:16:40;14.82;;;6.82;;
49392;SDS011;35268;42.642;23.308;2022-10-17T04:19:05;19.40;;;7.38;;
49392;SDS011;35268;42.642;23.308;2022-10-17T04:21:31;12.77;;;6.75;;
49392;SDS011;35268;42.642;23.308;2022-10-17T04:23:57;19.33;;;7.38;;
49392;SDS011;35268;42.642;23.308;2022-10-17T04:26:24;17.02;;;7.03;;
49392;SDS011;35268;42.642;23.308;2022-10-17T04:28:51;15.63;;;7.88;;
49392;SDS011;35268;42.642;23.308;2022-10-17T04:31:17;10.38;;;6.07;;
49392;SDS011;35268;42.642;23.308;2022-10-17T04:33:42;14.55;;;6.93;;
49392;SDS011;35268;42.642;23.308;2022-10-17T04:36:12;10.95;;;6.22;;
49392;SDS011;35268;42.642;23.308;2022-10-17T04:38:38;18.58;;;7.15;;
49392;SDS011;35268;42.642;23.308;2022-10-17T04:41:05;11.10;;;6.65;;
49392;SDS011;35268;42.642;23.308;2022-10-17T04:43:33;14.57;;;7.03;;
49392;SDS011;35268;42.642;23.308;2022-10-17T04:46:01;32.35;;;7.45;;
49392;SDS011;35268;42.642;23.308;2022-10-17T04:48:29;12.48;;;6.43;;
49392;SDS011;35268;42.642;23.308;2022-10-17T04:50:55;15.85;;;6.90;;
49392;SDS011;35268;42.642;23.308;2022-10-17T04:53:24;21.45;;;7.88;;
49392;SDS011;35268;42.642;23.308;2022-10-17T04:55:50;38.38;;;7.38;;
49392;SDS011;35268;42.642;23.308;2022-10-17T04:58:16;23.17;;;7.63;;
49392;SDS011;35268;42.642;23.308;2022-10-17T05:00:42;25.83;;;7.22;;
49392;SDS011;35268;42.642;23.308;2022-10-17T05:03:07;18.88;;;8.25;;
49392;SDS011;35268;42.642;23.308;2022-10-17T05:05:35;30.65;;;7.68;;
49392;SDS011;35268;42.642;23.308;2022-10-17T05:08:01;20.30;;;7.85;;
49392;SDS011;35268;42.642;23.308;2022-10-17T05:10:27;17.42;;;8.88;;
49392;SDS011;35268;42.642;23.308;2022-10-17T05:12:52;16.38;;;7.47;;
49392;SDS011;35268;42.642;23.308;2022-10-17T05:15:18;17.08;;;7.72;;
49392;SDS011;35268;42.642;23.308;2022-10-17T05:17:43;12.25;;;7.18;;
49392;SDS011;35268;42.642;23.308;2022-10-17T05:20:08;15.98;;;7.57;;
49392;SDS011;35268;42.642;23.308;2022-10-17T05:22:34;17.38;;;8.13;;
49392;SDS011;35268;42.642;23.308;2022-10-17T05:25:00;16.05;;;8.45;;
49392;SDS011;35268;42.642;23.308;2022-10-17T05:27:25;19.38;;;8.30;;
49392;SDS011;35268;42.642;23.308;2022-10-17T05:29:51;13.57;;;8.00;;
49392;SDS011;35268;42.642;23.308;2022-10-17T05:32:16;15.05;;;8.35;;
49392;SDS011;35268;42.642;23.308;2022-10-17T05:34:42;20.17;;;9.85;;
49392;SDS011;35268;42.642;23.308;2022-10-17T05:37:07;17.15;;;9.32;;
49392;SDS011;35268;42.642;23.308;2022-10-17T05:39:33;17.85;;;9.20;;
49392;SDS011;35268;42.642;23.308;2022-10-17T05:41:58;21.60;;;8.68;;
49392;SDS011;35268;42.642;23.308;2022-10-17T05:44:24;23.38;;;9.88;;
49392;SDS011;35268;42.642;23.308;2022-10-17T05:46:49;21.20;;;9.35;;
49392;SDS011;35268;42.642;23.308;2022-10-17T05:49:15;17.38;;;9.32;;
49392;SDS011;35268;42.642;23.308;2022-10-17T05:51:41;16.92;;;9.25;;
49392;SDS011;35268;42.642;23.308;2022-10-17T05:54:07;16.05;;;9.38;;
49392;SDS011;35268;42.642;23.308;2022-10-17T05:56:32;16.02;;;9.65;;
49392;SDS011;35268;42.642;23.308;2022-10-17T05:58:58;19.10;;;9.68;;
49392;SDS011;35268;42.642;23.308;2022-10-17T06:01:24;20.75;;;9.07;;
49392;SDS011;35268;42.642;23.308;2022-10-17T06:03:49;18.08;;;9.18;;
49392;SDS011;35268;42.642;23.308;2022-10-17T06:06:15;24.92;;;9.88;;
49392;SDS011;35268;42.642;23.308;2022-10-17T06:08:41;25.17;;;10.48;;
49392;SDS011;35268;42.642;23.308;2022-10-17T06:11:06;19.88;;;10.27;;
49392;SDS011;35268;42.642;23.308;2022-10-17T06:13:32;19.48;;;10.05;;
49392;SDS011;35268;42.642;23.308;2022-10-17T06:15:57;23.27;;;10.82;;
49392;SDS011;35268;42.642;23.308;2022-10-17T06:18:23;33.75;;;11.90;;
49392;SDS011;35268;42.642;23.308;2022-10-17T06:20:50;27.05;;;10.40;;
49392;SDS011;35268;42.642;23.308;2022-10-17T06:23:16;29.02;;;11.10;;
49392;SDS011;35268;42.642;23.308;2022-10-17T06:25:41;32.30;;;11.43;;
49392;SDS011;35268;42.642;23.308;2022-10-17T06:28:07;29.23;;;11.18;;
49392;SDS011;35268;42.642;23.308;2022-10-17T06:30:32;27.85;;;11.70;;
49392;SDS011;35268;42.642;23.308;2022-10-17T06:32:58;36.75;;;11.90;;
49392;SDS011;35268;42.642;23.308;2022-10-17T06:35:23;34.55;;;12.40;;
49392;SDS011;35268;42.642;23.308;2022-10-17T06:37:48;25.15;;;10.88;;
49392;SDS011;35268;42.642;23.308;2022-10-17T06:40:14;24.38;;;12.35;;
49392;SDS011;35268;42.642;23.308;2022-10-17T06:42:41;29.05;;;11.85;;
49392;SDS011;35268;42.642;23.308;2022-10-17T06:45:07;26.05;;;11.25;;
49392;SDS011;35268;42.642;23.308;2022-10-17T06:47:34;25.75;;;12.15;;
49392;SDS011;35268;42.642;23.308;2022-10-17T06:50:00;26.27;;;11.20;;
49392;SDS011;35268;42.642;23.308;2022-10-17T06:52:25;27.58;;;11.35;;
49392;SDS011;35268;42.642;23.308;2022-10-17T06:54:51;25.42;;;11.60;;
49392;SDS011;35268;42.642;23.308;2022-10-17T06:57:16;32.17;;;11.02;;
49392;SDS011;35268;42.642;23.308;2022-10-17T06:59:42;23.70;;;12.25;;
49392;SDS011;35268;42.642;23.308;2022-10-17T07:02:08;28.60;;;12.27;;
49392;SDS011;35268;42.642;23.308;2022-10-17T07:04:35;27.83;;;13.40;;
49392;SDS011;35268;42.642;23.308;2022-10-17T07:07:00;26.30;;;13.15;;
49392;SDS011;35268;42.642;23.308;2022-10-17T07:09:27;27.80;;;12.88;;
49392;SDS011;35268;42.642;23.308;2022-10-17T07:11:53;31.63;;;12.63;;
49392;SDS011;35268;42.642;23.308;2022-10-17T07:14:19;34.92;;;11.70;;
49392;SDS011;35268;42.642;23.308;2022-10-17T07:16:44;23.67;;;12.60;;
49392;SDS011;35268;42.642;23.308;2022-10-17T07:19:10;21.77;;;12.35;;
49392;SDS011;35268;42.642;23.308;2022-10-17T07:21:35;34.42;;;11.90;;
49392;SDS011;35268;42.642;23.308;2022-10-17T07:24:00;32.78;;;11.77;;
49392;SDS011;35268;42.642;23.308;2022-10-17T07:26:26;24.25;;;13.27;;
49392;SDS011;35268;42.642;23.308;2022-10-17T07:28:52;23.08;;;13.27;;
49392;SDS011;35268;42.642;23.308;2022-10-17T07:31:19;29.55;;;13.07;;
49392;SDS011;35268;42.642;23.308;2022-10-17T07:33:46;30.88;;;14.57;;
49392;SDS011;35268;42.642;23.308;2022-10-17T07:36:12;24.95;;;12.80;;
49392;SDS011;35268;42.642;23.308;2022-10-17T07:38:38;29.60;;;12.23;;
49392;SDS011;35268;42.642;23.308;2022-10-17T07:41:05;27.63;;;12.75;;
49392;SDS011;35268;42.642;23.308;2022-10-17T07:43:33;31.05;;;11.82;;
49392;SDS011;35268;42.642;23.308;2022-10-17T07:46:00;30.42;;;11.55;;
49392;SDS011;35268;42.642;23.308;2022-10-17T07:48:26;20.85;;;10.75;;
49392;SDS011;35268;42.642;23.308;2022-10-17T07:50:52;22.30;;;9.82;;
49392;SDS011;35268;42.642;23.308;2022-10-17T07:53:17;16.58;;;7.20;;
49392;SDS011;35268;42.642;23.308;2022-10-17T07:55:43;19.80;;;8.27;;
49392;SDS011;35268;42.642;23.308;2022-10-17T07:58:10;24.75;;;7.82;;
49392;SDS011;35268;42.642;23.308;2022-10-17T08:00:36;23.75;;;8.73;;
49392;SDS011;35268;42.642;23.308;2022-10-17T08:03:02;20.10;;;8.95;;
49392;SDS011;35268;42.642;23.308;2022-10-17T08:05:28;20.77;;;9.65;;
49392;SDS011;35268;42.642;23.308;2022-10-17T08:07:54;21.70;;;8.18;;
49392;SDS011;35268;42.642;23.308;2022-10-17T08:10:20;17.45;;;7.95;;
49392;SDS011;35268;42.642;23.308;2022-10-17T08:12:51;16.77;;;7.80;;
49392;SDS011;35268;42.642;23.308;2022-10-17T08:15:17;18.35;;;7.95;;
49392;SDS011;35268;42.642;23.308;2022-10-17T08:17:42;18.90;;;7.82;;
49392;SDS011;35268;42.642;23.308;2022-10-17T08:20:08;19.33;;;8.05;;
49392;SDS011;35268;42.642;23.308;2022-10-17T08:22:34;18.67;;;8.85;;
49392;SDS011;35268;42.642;23.308;2022-10-17T08:24:59;22.02;;;8.45;;
49392;SDS011;35268;42.642;23.308;2022-10-17T08:27:25;18.50;;;8.63;;
49392;SDS011;35268;42.642;23.308;2022-10-17T08:29:53;18.17;;;7.68;;
49392;SDS011;35268;42.642;23.308;2022-10-17T08:32:19;19.65;;;9.55;;
49392;SDS011;35268;42.642;23.308;2022-10-17T08:34:46;18.48;;;8.73;;
49392;SDS011;35268;42.642;23.308;2022-10-17T08:37:11;20.88;;;8.43;;
49392;SDS011;35268;42.642;23.308;2022-10-17T08:39:40;17.50;;;8.63;;
49392;SDS011;35268;42.642;23.308;2022-10-17T08:45:03;18.73;;;7.68;;
49392;SDS011;35268;42.642;23.308;2022-10-17T08:47:35;16.92;;;6.75;;
49392;SDS011;35268;42.642;23.308;2022-10-17T08:50:06;14.77;;;7.93;;
49392;SDS011;35268;42.642;23.308;2022-10-17T08:52:45;12.20;;;7.15;;
49392;SDS011;35268;42.642;23.308;2022-10-17T08:55:30;17.92;;;7.43;;
49392;SDS011;35268;42.642;23.308;2022-10-17T09:07:04;16.05;;;6.43;;
49392;SDS011;35268;42.642;23.308;2022-10-17T09:18:06;19.50;;;8.10;;
49392;SDS011;35268;42.642;23.308;2022-10-17T09:20:39;25.63;;;8.43;;
49392;SDS011;35268;42.642;23.308;2022-10-17T09:23:16;20.80;;;9.10;;
49392;SDS011;35268;42.642;23.308;2022-10-17T09:25:55;19.52;;;8.45;;
49392;SDS011;35268;42.642;23.308;2022-10-17T09:28:44;21.85;;;8.10;;
49392;SDS011;35268;42.642;23.308;2022-10-17T09:33:44;20.60;;;6.78;;
49392;SDS011;35268;42.642;23.308;2022-10-17T09:38:55;19.77;;;6.65;;
49392;SDS011;35268;42.642;23.308;2022-10-17T09:41:25;17.63;;;6.95;;
49392;SDS011;35268;42.642;23.308;2022-10-17T09:43:56;15.15;;;5.85;;
49392;SDS011;35268;42.642;23.308;2022-10-17T09:46:29;20.27;;;5.00;;
49392;SDS011;35268;42.642;23.308;2022-10-17T09:49:02;23.50;;;5.50;;
49392;SDS011;35268;42.642;23.308;2022-10-17T09:51:33;12.30;;;4.82;;
49392;SDS011;35268;42.642;23.308;2022-10-17T09:54:06;9.60;;;4.70;;
49392;SDS011;35268;42.642;23.308;2022-10-17T09:56:56;13.20;;;4.28;;
49392;SDS011;35268;42.642;23.308;2022-10-17T10:02:09;12.57;;;3.60;;
49392;SDS011;35268;42.642;23.308;2022-10-17T10:04:54;10.63;;;3.45;;
49392;SDS011;35268;42.642;23.308;2022-10-17T10:07:22;12.48;;;3.90;;
49392;SDS011;35268;42.642;23.308;2022-10-17T10:09:51;9.20;;;3.20;;
49392;SDS011;35268;42.642;23.308;2022-10-17T10:12:19;9.43;;;3.38;;
49392;SDS011;35268;42.642;23.308;2022-10-17T10:14:52;7.85;;;3.72;;
49392;SDS011;35268;42.642;23.308;2022-10-17T10:19:53;21.48;;;4.00;;
49392;SDS011;35268;42.642;23.308;2022-10-17T10:22:19;8.25;;;3.35;;
49392;SDS011;35268;42.642;23.308;2022-10-17T10:25:05;11.82;;;3.40;;
49392;SDS011;35268;42.642;23.308;2022-10-17T10:27:31;7.97;;;3.67;;
49392;SDS011;35268;42.642;23.308;2022-10-17T10:29:57;5.07;;;2.10;;
49392;SDS011;35268;42.642;23.308;2022-10-17T10:32:26;5.35;;;2.20;;
49392;SDS011;35268;42.642;23.308;2022-10-17T10:37:24;5.30;;;2.53;;
49392;SDS011;35268;42.642;23.308;2022-10-17T10:42:31;7.60;;;3.17;;
49392;SDS011;35268;42.642;23.308;2022-10-17T10:45:19;4.43;;;2.20;;
49392;SDS011;35268;42.642;23.308;2022-10-17T10:55:52;8.55;;;2.85;;
49392;SDS011;35268;42.642;23.308;2022-10-17T11:00:59;10.07;;;2.92;;
49392;SDS011;35268;42.642;23.308;2022-10-17T11:03:32;6.97;;;2.15;;
49392;SDS011;35268;42.642;23.308;2022-10-17T11:06:16;7.63;;;2.72;;
49392;SDS011;35268;42.642;23.308;2022-10-17T11:08:47;13.57;;;3.47;;
49392;SDS011;35268;42.642;23.308;2022-10-17T11:11:27;5.32;;;2.40;;
49392;SDS011;35268;42.642;23.308;2022-10-17T11:13:57;5.85;;;2.60;;
49392;SDS011;35268;42.642;23.308;2022-10-17T11:21:59;6.82;;;2.85;;
49392;SDS011;35268;42.642;23.308;2022-10-17T11:24:36;10.73;;;2.78;;
49392;SDS011;35268;42.642;23.308;2022-10-17T11:27:07;11.95;;;2.67;;
49392;SDS011;35268;42.642;23.308;2022-10-17T11:29:34;5.13;;;2.35;;
49392;SDS011;35268;42.642;23.308;2022-10-17T11:32:12;4.93;;;2.40;;
49392;SDS011;35268;42.642;23.308;2022-10-17T11:34:44;6.03;;;2.50;;
49392;SDS011;35268;42.642;23.308;2022-10-17T11:37:17;11.50;;;2.10;;
49392;SDS011;35268;42.642;23.308;2022-10-17T11:39:49;6.68;;;2.22;;
49392;SDS011;35268;42.642;23.308;2022-10-17T11:42:23;13.05;;;2.40;;
49392;SDS011;35268;42.642;23.308;2022-10-17T11:44:54;4.88;;;1.90;;
49392;SDS011;35268;42.642;23.308;2022-10-17T11:50:04;4.63;;;2.03;;
49392;SDS011;35268;42.642;23.308;2022-10-17T11:52:44;6.47;;;2.30;;
49392;SDS011;35268;42.642;23.308;2022-10-17T12:01:04;17.70;;;3.13;;
49392;SDS011;35268;42.642;23.308;2022-10-17T12:11:52;6.10;;;2.58;;
49392;SDS011;35268;42.642;23.308;2022-10-17T12:25:37;7.47;;;2.38;;
49392;SDS011;35268;42.642;23.308;2022-10-17T12:35:50;10.80;;;3.00;;
49392;SDS011;35268;42.642;23.308;2022-10-17T12:38:36;10.63;;;2.55;;
49392;SDS011;35268;42.642;23.308;2022-10-17T12:41:02;6.13;;;2.35;;
49392;SDS011;35268;42.642;23.308;2022-10-17T12:51:11;10.60;;;2.72;;
49392;SDS011;35268;42.642;23.308;2022-10-17T12:53:57;5.72;;;3.08;;
49392;SDS011;35268;42.642;23.308;2022-10-17T12:59:05;22.48;;;3.25;;
49392;SDS011;35268;42.642;23.308;2022-10-17T13:01:36;5.93;;;2.60;;
49392;SDS011;35268;42.642;23.308;2022-10-17T13:04:03;7.68;;;2.40;;
49392;SDS011;35268;42.642;23.308;2022-10-17T13:06:33;13.70;;;2.67;;
49392;SDS011;35268;42.642;23.308;2022-10-17T13:09:07;13.35;;;2.63;;
49392;SDS011;35268;42.642;23.308;2022-10-17T13:11:50;14.27;;;6.30;;
49392;SDS011;35268;42.642;23.308;2022-10-17T13:14:18;11.00;;;3.83;;
49392;SDS011;35268;42.642;23.308;2022-10-17T13:16:55;9.85;;;3.53;;
49392;SDS011;35268;42.642;23.308;2022-10-17T13:19:25;13.13;;;3.15;;
49392;SDS011;35268;42.642;23.308;2022-10-17T13:21:59;5.38;;;2.70;;
49392;SDS011;35268;42.642;23.308;2022-10-17T13:24:33;7.03;;;2.93;;
49392;SDS011;35268;42.642;23.308;2022-10-17T13:27:04;9.20;;;2.70;;
49392;SDS011;35268;42.642;23.308;2022-10-17T13:29:45;8.70;;;2.70;;
49392;SDS011;35268;42.642;23.308;2022-10-17T13:32:11;12.43;;;2.70;;
49392;SDS011;35268;42.642;23.308;2022-10-17T13:34:36;7.97;;;2.40;;
49392;SDS011;35268;42.642;23.308;2022-10-17T13:37:03;9.55;;;2.22;;
49392;SDS011;35268;42.642;23.308;2022-10-17T13:39:35;6.72;;;2.42;;
49392;SDS011;35268;42.642;23.308;2022-10-17T13:42:04;10.05;;;2.53;;
49392;SDS011;35268;42.642;23.308;2022-10-17T13:44:32;9.88;;;2.17;;
49392;SDS011;35268;42.642;23.308;2022-10-17T13:46:59;4.90;;;2.40;;
49392;SDS011;35268;42.642;23.308;2022-10-17T13:49:35;7.13;;;2.35;;
49392;SDS011;35268;42.642;23.308;2022-10-17T13:52:05;5.43;;;2.08;;
49392;SDS011;35268;42.642;23.308;2022-10-17T13:54:40;19.23;;;2.53;;
49392;SDS011;35268;42.642;23.308;2022-10-17T13:59:49;5.30;;;2.33;;
49392;SDS011;35268;42.642;23.308;2022-10-17T14:02:21;15.25;;;2.75;;
49392;SDS011;35268;42.642;23.308;2022-10-17T14:10:01;4.60;;;2.17;;
49392;SDS011;35268;42.642;23.308;2022-10-17T14:12:30;5.15;;;2.40;;
49392;SDS011;35268;42.642;23.308;2022-10-17T14:14:56;7.15;;;2.00;;
49392;SDS011;35268;42.642;23.308;2022-10-17T14:17:26;6.25;;;3.55;;
49392;SDS011;35268;42.642;23.308;2022-10-17T14:19:57;8.48;;;3.30;;
49392;SDS011;35268;42.642;23.308;2022-10-17T14:22:28;9.82;;;3.75;;
49392;SDS011;35268;42.642;23.308;2022-10-17T14:24:57;5.75;;;3.30;;
49392;SDS011;35268;42.642;23.308;2022-10-17T14:27:30;12.35;;;5.57;;
49392;SDS011;35268;42.642;23.308;2022-10-17T14:30:36;25.92;;;14.02;;
49392;SDS011;35268;42.642;23.308;2022-10-17T14:33:16;27.35;;;13.90;;
49392;SDS011;35268;42.642;23.308;2022-10-17T14:35:49;27.80;;;12.25;;
49392;SDS011;35268;42.642;23.308;2022-10-17T14:38:19;16.48;;;8.77;;
49392;SDS011;35268;42.642;23.308;2022-10-17T14:40:53;9.60;;;6.00;;
49392;SDS011;35268;42.642;23.308;2022-10-17T14:43:24;12.73;;;4.75;;
49392;SDS011;35268;42.642;23.308;2022-10-17T14:45:52;12.93;;;3.50;;
49392;SDS011;35268;42.642;23.308;2022-10-17T14:48:21;9.27;;;3.67;;
49392;SDS011;35268;42.642;23.308;2022-10-17T14:53:29;12.68;;;4.43;;
49392;SDS011;35268;42.642;23.308;2022-10-17T14:55:59;14.13;;;5.43;;
49392;SDS011;35268;42.642;23.308;2022-10-17T14:58:29;17.08;;;5.05;;
49392;SDS011;35268;42.642;23.308;2022-10-17T15:00:57;18.30;;;7.35;;
49392;SDS011;35268;42.642;23.308;2022-10-17T15:03:24;24.30;;;7.43;;
49392;SDS011;35268;42.642;23.308;2022-10-17T15:05:51;25.88;;;8.18;;
49392;SDS011;35268;42.642;23.308;2022-10-17T15:08:18;23.70;;;6.35;;
49392;SDS011;35268;42.642;23.308;2022-10-17T15:10:46;22.30;;;8.25;;
49392;SDS011;35268;42.642;23.308;2022-10-17T15:13:12;25.92;;;10.77;;
49392;SDS011;35268;42.642;23.308;2022-10-17T15:15:38;50.17;;;18.70;;
49392;SDS011;35268;42.642;23.308;2022-10-17T15:18:05;37.17;;;15.00;;
49392;SDS011;35268;42.642;23.308;2022-10-17T15:20:31;48.15;;;18.40;;
49392;SDS011;35268;42.642;23.308;2022-10-17T15:22:59;43.47;;;18.88;;
49392;SDS011;35268;42.642;23.308;2022-10-17T15:25:26;62.42;;;21.45;;
49392;SDS011;35268;42.642;23.308;2022-10-17T15:27:53;45.80;;;21.67;;
49392;SDS011;35268;42.642;23.308;2022-10-17T15:30:23;45.25;;;18.40;;
49392;SDS011;35268;42.642;23.308;2022-10-17T15:32:53;40.50;;;17.67;;
49392;SDS011;35268;42.642;23.308;2022-10-17T15:35:19;25.65;;;10.70;;
49392;SDS011;35268;42.642;23.308;2022-10-17T15:37:45;21.33;;;9.35;;
49392;SDS011;35268;42.642;23.308;2022-10-17T15:40:21;14.70;;;7.13;;
49392;SDS011;35268;42.642;23.308;2022-10-17T15:42:48;18.50;;;6.90;;
49392;SDS011;35268;42.642;23.308;2022-10-17T15:45:15;13.43;;;6.22;;
49392;SDS011;35268;42.642;23.308;2022-10-17T15:47:43;23.95;;;6.90;;
49392;SDS011;35268;42.642;23.308;2022-10-17T15:52:41;13.18;;;5.82;;
49392;SDS011;35268;42.642;23.308;2022-10-17T15:55:08;13.85;;;4.90;;
49392;SDS011;35268;42.642;23.308;2022-10-17T15:57:35;11.85;;;6.78;;
49392;SDS011;35268;42.642;23.308;2022-10-17T16:00:05;12.65;;;6.05;;
49392;SDS011;35268;42.642;23.308;2022-10-17T16:02:35;12.02;;;6.20;;
49392;SDS011;35268;42.642;23.308;2022-10-17T16:05:01;15.00;;;4.70;;
49392;SDS011;35268;42.642;23.308;2022-10-17T16:07:26;9.57;;;4.78;;
49392;SDS011;35268;42.642;23.308;2022-10-17T16:09:52;15.48;;;5.07;;
49392;SDS011;35268;42.642;23.308;2022-10-17T16:12:22;10.05;;;4.22;;
49392;SDS011;35268;42.642;23.308;2022-10-17T16:14:52;7.57;;;4.30;;
49392;SDS011;35268;42.642;23.308;2022-10-17T16:17:17;11.90;;;5.30;;
49392;SDS011;35268;42.642;23.308;2022-10-17T16:19:43;14.40;;;5.47;;
49392;SDS011;35268;42.642;23.308;2022-10-17T16:22:11;13.45;;;4.97;;
49392;SDS011;35268;42.642;23.308;2022-10-17T16:24:44;12.15;;;4.75;;
49392;SDS011;35268;42.642;23.308;2022-10-17T16:27:09;15.95;;;5.50;;
49392;SDS011;35268;42.642;23.308;2022-10-17T16:29:34;9.73;;;5.00;;
49392;SDS011;35268;42.642;23.308;2022-10-17T16:32:00;18.42;;;6.72;;
49392;SDS011;35268;42.642;23.308;2022-10-17T16:34:25;13.90;;;7.45;;
49392;SDS011;35268;42.642;23.308;2022-10-17T16:36:51;20.75;;;10.65;;
49392;SDS011;35268;42.642;23.308;2022-10-17T16:39:16;35.10;;;16.95;;
49392;SDS011;35268;42.642;23.308;2022-10-17T16:41:41;34.92;;;17.55;;
49392;SDS011;35268;42.642;23.308;2022-10-17T16:44:07;28.77;;;15.27;;
49392;SDS011;35268;42.642;23.308;2022-10-17T16:46:37;27.48;;;14.68;;
49392;SDS011;35268;42.642;23.308;2022-10-17T16:49:04;26.15;;;14.13;;
49392;SDS011;35268;42.642;23.308;2022-10-17T16:51:29;21.73;;;12.88;;
49392;SDS011;35268;42.642;23.308;2022-10-17T16:53:55;20.20;;;10.30;;
49392;SDS011;35268;42.642;23.308;2022-10-17T16:56:24;15.35;;;8.57;;